sensor_id;sensor_type;location;lat;lon;timestamp;temperature;humidity
38941;DHT22;43236;47.208;7.518;2023-01-15T00:00:12;10.50;99.90
38941;DHT22;43236;47.208;7.518;2023-01-15T00:03:00;10.60;99.90
38941;DHT22;43236;47.208;7.518;2023-01-15T00:05:47;10.60;99.90
38941;DHT22;43236;47.208;7.518;2023-01-15T00:08:34;10.60;99.90
38941;DHT22;43236;47.208;7.518;2023-01-15T00:11:22;10.60;99.90
38941;DHT22;43236;47.208;7.518;2023-01-15T00:14:09;10.60;99.90
38941;DHT22;43236;47.208;7.518;2023-01-15T00:16:59;10.60;99.90
38941;DHT22;43236;47.208;7.518;2023-01-15T00:19:46;10.70;99.90
38941;DHT22;43236;47.208;7.518;2023-01-15T00:22:33;10.70;99.90
38941;DHT22;43236;47.208;7.518;2023-01-15T00:25:20;10.70;99.90
38941;DHT22;43236;47.208;7.518;2023-01-15T00:28:25;10.80;99.90
38941;DHT22;43236;47.208;7.518;2023-01-15T00:31:13;10.80;99.90
38941;DHT22;43236;47.208;7.518;2023-01-15T00:34:01;10.70;99.90
38941;DHT22;43236;47.208;7.518;2023-01-15T00:36:48;10.70;99.90
38941;DHT22;43236;47.208;7.518;2023-01-15T00:39:35;10.70;99.90
38941;DHT22;43236;47.208;7.518;2023-01-15T00:42:23;10.70;99.90
38941;DHT22;43236;47.208;7.518;2023-01-15T00:45:10;10.70;99.90
38941;DHT22;43236;47.208;7.518;2023-01-15T00:47:58;10.80;99.90
38941;DHT22;43236;47.208;7.518;2023-01-15T00:50:46;10.70;99.90
38941;DHT22;43236;47.208;7.518;2023-01-15T00:53:36;10.70;99.90
38941;DHT22;43236;47.208;7.518;2023-01-15T00:56:23;10.70;99.90
38941;DHT22;43236;47.208;7.518;2023-01-15T00:59:10;10.70;99.90
38941;DHT22;43236;47.208;7.518;2023-01-15T01:01:57;10.60;99.90
38941;DHT22;43236;47.208;7.518;2023-01-15T01:04:45;10.60;99.90
38941;DHT22;43236;47.208;7.518;2023-01-15T01:07:36;10.60;99.90
38941;DHT22;43236;47.208;7.518;2023-01-15T01:10:23;10.60;99.90
38941;DHT22;43236;47.208;7.518;2023-01-15T01:13:11;10.60;99.90
38941;DHT22;43236;47.208;7.518;2023-01-15T01:15:58;10.60;99.90
38941;DHT22;43236;47.208;7.518;2023-01-15T01:18:45;10.60;99.90
38941;DHT22;43236;47.208;7.518;2023-01-15T01:21:32;10.60;99.90
38941;DHT22;43236;47.208;7.518;2023-01-15T01:24:22;10.60;99.90
38941;DHT22;43236;47.208;7.518;2023-01-15T01:27:09;10.60;99.90
38941;DHT22;43236;47.208;7.518;2023-01-15T01:29:56;10.60;99.90
38941;DHT22;43236;47.208;7.518;2023-01-15T01:32:44;10.60;99.90
38941;DHT22;43236;47.208;7.518;2023-01-15T01:35:31;10.60;99.90
38941;DHT22;43236;47.208;7.518;2023-01-15T01:38:18;10.60;99.90
38941;DHT22;43236;47.208;7.518;2023-01-15T01:41:06;10.60;99.90
38941;DHT22;43236;47.208;7.518;2023-01-15T01:43:58;10.60;99.90
38941;DHT22;43236;47.208;7.518;2023-01-15T01:46:46;10.60;99.90
38941;DHT22;43236;47.208;7.518;2023-01-15T01:49:33;10.60;99.90
38941;DHT22;43236;47.208;7.518;2023-01-15T01:52:24;10.60;99.90
38941;DHT22;43236;47.208;7.518;2023-01-15T01:55:14;10.60;99.90
38941;DHT22;43236;47.208;7.518;2023-01-15T01:58:05;10.60;99.90
38941;DHT22;43236;47.208;7.518;2023-01-15T02:00:55;10.60;99.90
38941;DHT22;43236;47.208;7.518;2023-01-15T02:03:42;10.50;99.90
38941;DHT22;43236;47.208;7.518;2023-01-15T02:06:30;10.50;99.90
38941;DHT22;43236;47.208;7.518;2023-01-15T02:09:17;10.50;99.90
38941;DHT22;43236;47.208;7.518;2023-01-15T02:12:08;10.60;99.90
38941;DHT22;43236;47.208;7.518;2023-01-15T02:15:03;10.50;99.90
38941;DHT22;43236;47.208;7.518;2023-01-15T02:17:52;10.60;99.90
38941;DHT22;43236;47.208;7.518;2023-01-15T02:20:44;10.60;99.90
38941;DHT22;43236;47.208;7.518;2023-01-15T02:26:57;10.50;99.90
38941;DHT22;43236;47.208;7.518;2023-01-15T02:29:53;10.50;99.90
38941;DHT22;43236;47.208;7.518;2023-01-15T02:32:47;10.50;99.90
38941;DHT22;43236;47.208;7.518;2023-01-15T02:35:38;10.50;99.90
38941;DHT22;43236;47.208;7.518;2023-01-15T02:38:31;10.50;99.90
38941;DHT22;43236;47.208;7.518;2023-01-15T02:41:23;10.50;99.90
38941;DHT22;43236;47.208;7.518;2023-01-15T02:44:13;10.50;99.90
38941;DHT22;43236;47.208;7.518;2023-01-15T02:47:03;10.40;99.90
38941;DHT22;43236;47.208;7.518;2023-01-15T02:49:54;10.50;99.90
38941;DHT22;43236;47.208;7.518;2023-01-15T02:52:46;10.40;99.90
38941;DHT22;43236;47.208;7.518;2023-01-15T02:55:37;10.40;99.90
38941;DHT22;43236;47.208;7.518;2023-01-15T02:58:27;10.50;99.90
38941;DHT22;43236;47.208;7.518;2023-01-15T03:01:21;10.50;99.90
38941;DHT22;43236;47.208;7.518;2023-01-15T03:04:14;10.50;99.90
38941;DHT22;43236;47.208;7.518;2023-01-15T03:07:07;10.50;99.90
38941;DHT22;43236;47.208;7.518;2023-01-15T03:09:56;10.50;99.90
38941;DHT22;43236;47.208;7.518;2023-01-15T03:12:45;10.40;99.90
38941;DHT22;43236;47.208;7.518;2023-01-15T03:15:52;10.40;99.90
38941;DHT22;43236;47.208;7.518;2023-01-15T03:19:06;10.40;99.90
38941;DHT22;43236;47.208;7.518;2023-01-15T03:22:01;10.40;99.90
38941;DHT22;43236;47.208;7.518;2023-01-15T03:24:51;10.40;99.90
38941;DHT22;43236;47.208;7.518;2023-01-15T03:27:40;10.40;99.90
38941;DHT22;43236;47.208;7.518;2023-01-15T03:30:27;10.40;99.90
38941;DHT22;43236;47.208;7.518;2023-01-15T03:33:14;10.40;99.90
38941;DHT22;43236;47.208;7.518;2023-01-15T03:36:03;10.40;99.90
38941;DHT22;43236;47.208;7.518;2023-01-15T03:38:50;10.40;99.90
38941;DHT22;43236;47.208;7.518;2023-01-15T03:41:45;10.40;99.90
38941;DHT22;43236;47.208;7.518;2023-01-15T03:44:38;10.40;99.90
38941;DHT22;43236;47.208;7.518;2023-01-15T03:47:32;10.30;99.90
38941;DHT22;43236;47.208;7.518;2023-01-15T03:50:28;10.30;99.90
38941;DHT22;43236;47.208;7.518;2023-01-15T03:53:20;10.30;99.90
38941;DHT22;43236;47.208;7.518;2023-01-15T03:56:13;10.30;99.90
38941;DHT22;43236;47.208;7.518;2023-01-15T03:59:04;10.30;99.90
38941;DHT22;43236;47.208;7.518;2023-01-15T04:01:53;10.40;99.90
38941;DHT22;43236;47.208;7.518;2023-01-15T04:04:41;10.30;99.90
38941;DHT22;43236;47.208;7.518;2023-01-15T04:07:30;10.40;99.90
38941;DHT22;43236;47.208;7.518;2023-01-15T04:10:19;10.40;99.90
38941;DHT22;43236;47.208;7.518;2023-01-15T04:13:06;10.40;99.90
38941;DHT22;43236;47.208;7.518;2023-01-15T04:15:53;10.40;99.90
38941;DHT22;43236;47.208;7.518;2023-01-15T04:18:41;10.40;99.90
38941;DHT22;43236;47.208;7.518;2023-01-15T04:21:28;10.40;99.90
38941;DHT22;43236;47.208;7.518;2023-01-15T04:24:15;10.30;99.90
38941;DHT22;43236;47.208;7.518;2023-01-15T04:27:04;10.30;99.90
38941;DHT22;43236;47.208;7.518;2023-01-15T04:29:51;10.30;99.90
38941;DHT22;43236;47.208;7.518;2023-01-15T04:32:38;10.30;99.90
38941;DHT22;43236;47.208;7.518;2023-01-15T04:35:25;10.30;99.90
38941;DHT22;43236;47.208;7.518;2023-01-15T04:38:12;10.30;99.90
38941;DHT22;43236;47.208;7.518;2023-01-15T04:41:00;10.40;99.90
38941;DHT22;43236;47.208;7.518;2023-01-15T04:44:06;10.40;99.90
38941;DHT22;43236;47.208;7.518;2023-01-15T04:46:54;10.40;99.90
38941;DHT22;43236;47.208;7.518;2023-01-15T04:49:42;10.40;99.90
38941;DHT22;43236;47.208;7.518;2023-01-15T04:52:29;10.40;99.90
38941;DHT22;43236;47.208;7.518;2023-01-15T04:55:16;10.40;99.90
38941;DHT22;43236;47.208;7.518;2023-01-15T04:58:03;10.40;99.90
38941;DHT22;43236;47.208;7.518;2023-01-15T05:00:51;10.40;99.90
38941;DHT22;43236;47.208;7.518;2023-01-15T05:03:38;10.50;99.90
38941;DHT22;43236;47.208;7.518;2023-01-15T05:06:26;10.50;99.90
38941;DHT22;43236;47.208;7.518;2023-01-15T05:09:13;10.50;99.90
38941;DHT22;43236;47.208;7.518;2023-01-15T05:12:00;10.50;99.90
38941;DHT22;43236;47.208;7.518;2023-01-15T05:14:47;10.50;99.90
38941;DHT22;43236;47.208;7.518;2023-01-15T05:17:36;10.50;99.90
38941;DHT22;43236;47.208;7.518;2023-01-15T05:20:23;10.50;99.90
38941;DHT22;43236;47.208;7.518;2023-01-15T05:23:10;10.50;99.90
38941;DHT22;43236;47.208;7.518;2023-01-15T05:25:57;10.50;99.90
38941;DHT22;43236;47.208;7.518;2023-01-15T05:28:44;10.50;99.90
38941;DHT22;43236;47.208;7.518;2023-01-15T05:31:32;10.50;99.90
38941;DHT22;43236;47.208;7.518;2023-01-15T05:34:20;10.50;99.90
38941;DHT22;43236;47.208;7.518;2023-01-15T05:37:07;10.50;99.90
38941;DHT22;43236;47.208;7.518;2023-01-15T05:39:54;10.60;99.90
38941;DHT22;43236;47.208;7.518;2023-01-15T05:42:41;10.60;99.90
38941;DHT22;43236;47.208;7.518;2023-01-15T05:45:28;10.60;99.90
38941;DHT22;43236;47.208;7.518;2023-01-15T05:48:15;10.60;99.90
38941;DHT22;43236;47.208;7.518;2023-01-15T05:51:04;10.60;99.90
38941;DHT22;43236;47.208;7.518;2023-01-15T05:53:51;10.60;99.90
38941;DHT22;43236;47.208;7.518;2023-01-15T05:56:39;10.60;99.90
38941;DHT22;43236;47.208;7.518;2023-01-15T05:59:27;10.70;99.90
38941;DHT22;43236;47.208;7.518;2023-01-15T06:02:15;10.70;99.90
38941;DHT22;43236;47.208;7.518;2023-01-15T06:05:02;10.70;99.90
38941;DHT22;43236;47.208;7.518;2023-01-15T06:07:51;10.70;99.90
38941;DHT22;43236;47.208;7.518;2023-01-15T06:10:38;10.70;99.90
38941;DHT22;43236;47.208;7.518;2023-01-15T06:13:25;10.70;99.90
38941;DHT22;43236;47.208;7.518;2023-01-15T06:16:13;10.70;99.90
38941;DHT22;43236;47.208;7.518;2023-01-15T06:19:00;10.70;99.90
38941;DHT22;43236;47.208;7.518;2023-01-15T06:21:48;10.70;99.90
38941;DHT22;43236;47.208;7.518;2023-01-15T06:24:37;10.70;99.90
38941;DHT22;43236;47.208;7.518;2023-01-15T06:27:24;10.70;99.90
38941;DHT22;43236;47.208;7.518;2023-01-15T06:30:12;10.80;99.90
38941;DHT22;43236;47.208;7.518;2023-01-15T06:32:59;10.80;99.90
38941;DHT22;43236;47.208;7.518;2023-01-15T06:35:46;10.80;99.90
38941;DHT22;43236;47.208;7.518;2023-01-15T06:38:33;10.80;99.90
38941;DHT22;43236;47.208;7.518;2023-01-15T06:41:23;10.80;99.90
38941;DHT22;43236;47.208;7.518;2023-01-15T06:44:28;10.70;99.90
38941;DHT22;43236;47.208;7.518;2023-01-15T06:47:32;10.70;99.90
38941;DHT22;43236;47.208;7.518;2023-01-15T06:50:19;10.70;99.90
38941;DHT22;43236;47.208;7.518;2023-01-15T06:53:06;10.70;99.90
38941;DHT22;43236;47.208;7.518;2023-01-15T06:55:55;10.80;99.90
38941;DHT22;43236;47.208;7.518;2023-01-15T06:58:44;10.80;99.90
38941;DHT22;43236;47.208;7.518;2023-01-15T07:01:31;10.80;99.90
38941;DHT22;43236;47.208;7.518;2023-01-15T07:04:18;10.80;99.90
38941;DHT22;43236;47.208;7.518;2023-01-15T07:07:05;10.80;99.90
38941;DHT22;43236;47.208;7.518;2023-01-15T07:09:55;10.80;99.90
38941;DHT22;43236;47.208;7.518;2023-01-15T07:12:42;10.80;99.90
38941;DHT22;43236;47.208;7.518;2023-01-15T07:15:41;10.80;99.90
38941;DHT22;43236;47.208;7.518;2023-01-15T07:18:36;10.80;99.90
38941;DHT22;43236;47.208;7.518;2023-01-15T07:21:24;10.80;99.90
38941;DHT22;43236;47.208;7.518;2023-01-15T07:24:29;10.80;99.90
38941;DHT22;43236;47.208;7.518;2023-01-15T07:27:19;10.90;99.90
38941;DHT22;43236;47.208;7.518;2023-01-15T07:30:08;10.90;99.90
38941;DHT22;43236;47.208;7.518;2023-01-15T07:32:56;10.90;99.90
38941;DHT22;43236;47.208;7.518;2023-01-15T07:35:43;10.90;99.90
38941;DHT22;43236;47.208;7.518;2023-01-15T07:38:30;10.90;99.90
38941;DHT22;43236;47.208;7.518;2023-01-15T07:41:18;11.00;99.90
38941;DHT22;43236;47.208;7.518;2023-01-15T07:44:22;11.00;99.90
38941;DHT22;43236;47.208;7.518;2023-01-15T07:47:27;10.90;99.90
38941;DHT22;43236;47.208;7.518;2023-01-15T07:50:33;10.90;99.90
38941;DHT22;43236;47.208;7.518;2023-01-15T07:53:20;10.90;99.90
38941;DHT22;43236;47.208;7.518;2023-01-15T07:56:25;10.90;99.90
38941;DHT22;43236;47.208;7.518;2023-01-15T07:59:19;10.90;99.90
38941;DHT22;43236;47.208;7.518;2023-01-15T08:02:06;12.20;99.90
38941;DHT22;43236;47.208;7.518;2023-01-15T08:04:53;11.00;99.90
38941;DHT22;43236;47.208;7.518;2023-01-15T08:07:42;11.00;99.90
38941;DHT22;43236;47.208;7.518;2023-01-15T08:10:32;11.00;99.90
38941;DHT22;43236;47.208;7.518;2023-01-15T08:13:40;11.10;99.90
38941;DHT22;43236;47.208;7.518;2023-01-15T08:16:45;11.10;99.90
38941;DHT22;43236;47.208;7.518;2023-01-15T08:19:32;11.10;99.90
38941;DHT22;43236;47.208;7.518;2023-01-15T08:22:19;11.10;99.90
38941;DHT22;43236;47.208;7.518;2023-01-15T08:25:09;11.10;99.90
38941;DHT22;43236;47.208;7.518;2023-01-15T08:28:00;11.10;99.90
38941;DHT22;43236;47.208;7.518;2023-01-15T08:30:48;11.00;99.90
38941;DHT22;43236;47.208;7.518;2023-01-15T08:33:35;11.00;99.90
38941;DHT22;43236;47.208;7.518;2023-01-15T08:36:22;10.90;99.90
38941;DHT22;43236;47.208;7.518;2023-01-15T08:39:09;10.80;99.90
38941;DHT22;43236;47.208;7.518;2023-01-15T08:41:57;10.80;99.90
38941;DHT22;43236;47.208;7.518;2023-01-15T08:44:44;10.70;99.90
38941;DHT22;43236;47.208;7.518;2023-01-15T08:47:31;10.70;99.90
38941;DHT22;43236;47.208;7.518;2023-01-15T08:50:19;10.70;99.90
38941;DHT22;43236;47.208;7.518;2023-01-15T08:53:06;10.60;99.90
38941;DHT22;43236;47.208;7.518;2023-01-15T08:55:53;10.50;99.90
38941;DHT22;43236;47.208;7.518;2023-01-15T08:58:42;10.50;99.90
38941;DHT22;43236;47.208;7.518;2023-01-15T09:01:29;10.50;99.90
38941;DHT22;43236;47.208;7.518;2023-01-15T09:04:17;10.40;99.90
38941;DHT22;43236;47.208;7.518;2023-01-15T09:07:05;10.30;99.90
38941;DHT22;43236;47.208;7.518;2023-01-15T09:09:52;10.20;99.90
38941;DHT22;43236;47.208;7.518;2023-01-15T09:12:39;10.10;99.90
38941;DHT22;43236;47.208;7.518;2023-01-15T09:15:27;10.00;99.90
38941;DHT22;43236;47.208;7.518;2023-01-15T09:18:15;9.90;99.90
38941;DHT22;43236;47.208;7.518;2023-01-15T09:21:04;9.70;99.90
38941;DHT22;43236;47.208;7.518;2023-01-15T09:23:51;9.70;99.90
38941;DHT22;43236;47.208;7.518;2023-01-15T09:26:39;9.60;99.90
38941;DHT22;43236;47.208;7.518;2023-01-15T09:29:26;9.50;99.90
38941;DHT22;43236;47.208;7.518;2023-01-15T09:32:14;9.40;99.90
38941;DHT22;43236;47.208;7.518;2023-01-15T09:35:01;9.30;99.90
38941;DHT22;43236;47.208;7.518;2023-01-15T09:37:50;9.30;99.90
38941;DHT22;43236;47.208;7.518;2023-01-15T09:40:46;9.20;99.90
38941;DHT22;43236;47.208;7.518;2023-01-15T09:43:38;9.20;99.90
38941;DHT22;43236;47.208;7.518;2023-01-15T09:46:38;9.20;99.90
38941;DHT22;43236;47.208;7.518;2023-01-15T09:53:03;9.30;99.90
38941;DHT22;43236;47.208;7.518;2023-01-15T09:55:52;9.30;99.90
38941;DHT22;43236;47.208;7.518;2023-01-15T09:58:40;9.20;99.90
38941;DHT22;43236;47.208;7.518;2023-01-15T10:01:29;9.20;99.90
38941;DHT22;43236;47.208;7.518;2023-01-15T10:04:29;9.10;99.90
38941;DHT22;43236;47.208;7.518;2023-01-15T10:07:24;9.00;99.90
38941;DHT22;43236;47.208;7.518;2023-01-15T10:10:16;9.00;99.90
38941;DHT22;43236;47.208;7.518;2023-01-15T10:13:10;8.90;99.90
38941;DHT22;43236;47.208;7.518;2023-01-15T10:15:58;8.90;99.90
38941;DHT22;43236;47.208;7.518;2023-01-15T10:18:45;8.90;99.90
38941;DHT22;43236;47.208;7.518;2023-01-15T10:21:38;8.90;99.90
38941;DHT22;43236;47.208;7.518;2023-01-15T10:24:33;8.90;99.90
38941;DHT22;43236;47.208;7.518;2023-01-15T10:27:25;9.00;99.90
38941;DHT22;43236;47.208;7.518;2023-01-15T10:30:15;9.00;99.90
38941;DHT22;43236;47.208;7.518;2023-01-15T10:33:13;9.00;99.90
38941;DHT22;43236;47.208;7.518;2023-01-15T10:36:06;9.00;99.90
38941;DHT22;43236;47.208;7.518;2023-01-15T10:39:02;9.00;99.90
38941;DHT22;43236;47.208;7.518;2023-01-15T10:42:05;9.00;99.90
38941;DHT22;43236;47.208;7.518;2023-01-15T10:45:00;9.10;99.90
38941;DHT22;43236;47.208;7.518;2023-01-15T10:47:54;9.00;99.90
38941;DHT22;43236;47.208;7.518;2023-01-15T10:50:43;9.00;99.90
38941;DHT22;43236;47.208;7.518;2023-01-15T10:53:36;9.00;99.90
38941;DHT22;43236;47.208;7.518;2023-01-15T10:56:31;8.90;99.90
38941;DHT22;43236;47.208;7.518;2023-01-15T10:59:36;8.90;99.90
38941;DHT22;43236;47.208;7.518;2023-01-15T11:02:28;8.90;99.90
38941;DHT22;43236;47.208;7.518;2023-01-15T11:05:18;8.90;99.90
38941;DHT22;43236;47.208;7.518;2023-01-15T11:08:07;8.90;99.90
38941;DHT22;43236;47.208;7.518;2023-01-15T11:11:08;8.80;99.90
38941;DHT22;43236;47.208;7.518;2023-01-15T11:14:00;8.70;99.90
38941;DHT22;43236;47.208;7.518;2023-01-15T11:17:12;8.70;99.90
38941;DHT22;43236;47.208;7.518;2023-01-15T11:20:27;8.60;99.90
38941;DHT22;43236;47.208;7.518;2023-01-15T11:23:18;8.60;99.90
38941;DHT22;43236;47.208;7.518;2023-01-15T11:26:06;8.60;99.90
38941;DHT22;43236;47.208;7.518;2023-01-15T11:28:54;8.60;99.90
38941;DHT22;43236;47.208;7.518;2023-01-15T11:31:41;8.60;99.90
38941;DHT22;43236;47.208;7.518;2023-01-15T11:34:30;8.60;99.90
38941;DHT22;43236;47.208;7.518;2023-01-15T11:37:17;8.60;99.90
38941;DHT22;43236;47.208;7.518;2023-01-15T11:40:05;8.60;99.90
38941;DHT22;43236;47.208;7.518;2023-01-15T11:42:53;8.60;99.90
38941;DHT22;43236;47.208;7.518;2023-01-15T11:45:58;8.70;99.90
38941;DHT22;43236;47.208;7.518;2023-01-15T11:49:07;8.60;99.90
38941;DHT22;43236;47.208;7.518;2023-01-15T11:52:16;8.60;99.90
38941;DHT22;43236;47.208;7.518;2023-01-15T11:55:10;8.60;99.90
38941;DHT22;43236;47.208;7.518;2023-01-15T11:57:58;8.50;99.90
38941;DHT22;43236;47.208;7.518;2023-01-15T12:00:49;8.50;99.90
38941;DHT22;43236;47.208;7.518;2023-01-15T12:03:39;8.50;99.90
38941;DHT22;43236;47.208;7.518;2023-01-15T12:06:27;8.50;99.90
38941;DHT22;43236;47.208;7.518;2023-01-15T12:09:23;8.50;99.90
38941;DHT22;43236;47.208;7.518;2023-01-15T12:12:21;8.50;99.90
38941;DHT22;43236;47.208;7.518;2023-01-15T12:15:22;8.30;99.90
38941;DHT22;43236;47.208;7.518;2023-01-15T12:18:29;8.30;99.90
38941;DHT22;43236;47.208;7.518;2023-01-15T12:22:02;8.40;99.90
38941;DHT22;43236;47.208;7.518;2023-01-15T12:25:03;8.40;99.90
38941;DHT22;43236;47.208;7.518;2023-01-15T12:27:57;8.40;99.90
38941;DHT22;43236;47.208;7.518;2023-01-15T12:30:52;8.40;99.90
38941;DHT22;43236;47.208;7.518;2023-01-15T12:33:45;8.40;99.90
38941;DHT22;43236;47.208;7.518;2023-01-15T12:36:39;8.40;99.90
38941;DHT22;43236;47.208;7.518;2023-01-15T12:39:31;8.40;99.90
38941;DHT22;43236;47.208;7.518;2023-01-15T12:42:23;8.40;99.90
38941;DHT22;43236;47.208;7.518;2023-01-15T12:45:31;8.40;99.90
38941;DHT22;43236;47.208;7.518;2023-01-15T12:48:24;8.40;99.90
38941;DHT22;43236;47.208;7.518;2023-01-15T12:51:16;8.40;99.90
38941;DHT22;43236;47.208;7.518;2023-01-15T12:54:09;8.50;99.90
38941;DHT22;43236;47.208;7.518;2023-01-15T12:57:00;8.50;99.90
38941;DHT22;43236;47.208;7.518;2023-01-15T12:59:56;8.50;99.90
38941;DHT22;43236;47.208;7.518;2023-01-15T13:02:56;8.40;99.90
38941;DHT22;43236;47.208;7.518;2023-01-15T13:05:46;8.40;99.90
38941;DHT22;43236;47.208;7.518;2023-01-15T13:08:48;8.50;99.90
38941;DHT22;43236;47.208;7.518;2023-01-15T13:11:37;8.50;99.90
38941;DHT22;43236;47.208;7.518;2023-01-15T13:14:24;8.60;99.90
38941;DHT22;43236;47.208;7.518;2023-01-15T13:17:20;8.60;99.90
38941;DHT22;43236;47.208;7.518;2023-01-15T13:20:22;8.60;99.90
38941;DHT22;43236;47.208;7.518;2023-01-15T13:23:41;8.50;99.90
38941;DHT22;43236;47.208;7.518;2023-01-15T13:26:50;8.50;99.90
38941;DHT22;43236;47.208;7.518;2023-01-15T13:29:49;8.40;99.90
38941;DHT22;43236;47.208;7.518;2023-01-15T13:32:42;8.40;99.90
38941;DHT22;43236;47.208;7.518;2023-01-15T13:35:33;8.40;99.90
38941;DHT22;43236;47.208;7.518;2023-01-15T13:38:23;8.40;99.90
38941;DHT22;43236;47.208;7.518;2023-01-15T13:41:17;8.40;99.90
38941;DHT22;43236;47.208;7.518;2023-01-15T13:44:30;8.40;99.90
38941;DHT22;43236;47.208;7.518;2023-01-15T13:47:20;8.40;99.90
38941;DHT22;43236;47.208;7.518;2023-01-15T13:50:17;8.40;99.90
38941;DHT22;43236;47.208;7.518;2023-01-15T13:53:08;8.40;99.90
38941;DHT22;43236;47.208;7.518;2023-01-15T13:56:02;8.40;99.90
38941;DHT22;43236;47.208;7.518;2023-01-15T14:01:24;8.50;99.90
38941;DHT22;43236;47.208;7.518;2023-01-15T14:04:13;8.50;99.90
38941;DHT22;43236;47.208;7.518;2023-01-15T14:07:02;8.60;99.90
38941;DHT22;43236;47.208;7.518;2023-01-15T14:09:49;8.70;99.90
38941;DHT22;43236;47.208;7.518;2023-01-15T14:12:43;9.00;99.90
38941;DHT22;43236;47.208;7.518;2023-01-15T14:15:41;9.10;99.90
38941;DHT22;43236;47.208;7.518;2023-01-15T14:19:02;9.30;99.90
38941;DHT22;43236;47.208;7.518;2023-01-15T14:22:00;9.40;99.90
38941;DHT22;43236;47.208;7.518;2023-01-15T14:25:12;9.50;99.90
38941;DHT22;43236;47.208;7.518;2023-01-15T14:28:17;9.60;99.90
38941;DHT22;43236;47.208;7.518;2023-01-15T14:31:18;9.60;99.90
38941;DHT22;43236;47.208;7.518;2023-01-15T14:34:13;9.60;99.90
38941;DHT22;43236;47.208;7.518;2023-01-15T14:37:03;9.60;99.90
38941;DHT22;43236;47.208;7.518;2023-01-15T14:39:54;9.70;99.90
38941;DHT22;43236;47.208;7.518;2023-01-15T14:42:47;9.80;99.90
38941;DHT22;43236;47.208;7.518;2023-01-15T14:45:49;9.70;99.90
38941;DHT22;43236;47.208;7.518;2023-01-15T14:48:38;9.60;99.90
38941;DHT22;43236;47.208;7.518;2023-01-15T14:51:26;9.50;99.90
38941;DHT22;43236;47.208;7.518;2023-01-15T14:54:17;9.50;99.90
38941;DHT22;43236;47.208;7.518;2023-01-15T14:57:06;9.60;99.90
38941;DHT22;43236;47.208;7.518;2023-01-15T14:59:59;9.50;99.90
38941;DHT22;43236;47.208;7.518;2023-01-15T15:02:49;9.50;99.90
38941;DHT22;43236;47.208;7.518;2023-01-15T15:05:36;9.40;99.90
38941;DHT22;43236;47.208;7.518;2023-01-15T15:08:30;9.40;99.90
38941;DHT22;43236;47.208;7.518;2023-01-15T15:11:23;9.40;99.90
38941;DHT22;43236;47.208;7.518;2023-01-15T15:14:29;9.40;99.90
38941;DHT22;43236;47.208;7.518;2023-01-15T15:17:27;9.30;99.90
38941;DHT22;43236;47.208;7.518;2023-01-15T15:20:26;9.30;99.90
38941;DHT22;43236;47.208;7.518;2023-01-15T15:23:21;9.20;99.90
38941;DHT22;43236;47.208;7.518;2023-01-15T15:26:29;9.10;99.90
38941;DHT22;43236;47.208;7.518;2023-01-15T15:29:17;9.00;99.90
38941;DHT22;43236;47.208;7.518;2023-01-15T15:32:05;9.00;99.90
38941;DHT22;43236;47.208;7.518;2023-01-15T15:34:54;9.00;99.90
38941;DHT22;43236;47.208;7.518;2023-01-15T15:37:43;8.90;99.90
38941;DHT22;43236;47.208;7.518;2023-01-15T15:40:32;8.90;99.90
38941;DHT22;43236;47.208;7.518;2023-01-15T15:43:24;8.90;99.90
38941;DHT22;43236;47.208;7.518;2023-01-15T15:46:31;8.80;99.90
38941;DHT22;43236;47.208;7.518;2023-01-15T15:49:37;8.80;99.90
38941;DHT22;43236;47.208;7.518;2023-01-15T15:52:26;8.90;99.90
38941;DHT22;43236;47.208;7.518;2023-01-15T15:55:15;8.90;99.90
38941;DHT22;43236;47.208;7.518;2023-01-15T15:58:03;8.90;99.90
38941;DHT22;43236;47.208;7.518;2023-01-15T16:00:52;8.80;99.90
38941;DHT22;43236;47.208;7.518;2023-01-15T16:03:46;8.80;99.90
38941;DHT22;43236;47.208;7.518;2023-01-15T16:06:33;8.70;99.90
38941;DHT22;43236;47.208;7.518;2023-01-15T16:09:23;8.70;99.90
38941;DHT22;43236;47.208;7.518;2023-01-15T16:12:12;8.60;99.90
38941;DHT22;43236;47.208;7.518;2023-01-15T16:15:01;8.60;99.90
38941;DHT22;43236;47.208;7.518;2023-01-15T16:17:50;8.60;99.90
38941;DHT22;43236;47.208;7.518;2023-01-15T16:20:38;8.60;99.90
38941;DHT22;43236;47.208;7.518;2023-01-15T16:23:27;8.60;99.90
38941;DHT22;43236;47.208;7.518;2023-01-15T16:26:18;8.60;99.90
38941;DHT22;43236;47.208;7.518;2023-01-15T16:29:15;8.50;99.90
38941;DHT22;43236;47.208;7.518;2023-01-15T16:32:09;8.50;99.90
38941;DHT22;43236;47.208;7.518;2023-01-15T16:35:01;8.50;99.90
38941;DHT22;43236;47.208;7.518;2023-01-15T16:37:53;8.50;99.90
38941;DHT22;43236;47.208;7.518;2023-01-15T16:40:43;8.50;99.90
38941;DHT22;43236;47.208;7.518;2023-01-15T16:43:51;8.50;99.90
38941;DHT22;43236;47.208;7.518;2023-01-15T16:46:50;8.40;99.90
38941;DHT22;43236;47.208;7.518;2023-01-15T16:49:38;8.30;99.90
38941;DHT22;43236;47.208;7.518;2023-01-15T16:52:48;8.20;99.90
38941;DHT22;43236;47.208;7.518;2023-01-15T16:55:40;8.20;99.90
38941;DHT22;43236;47.208;7.518;2023-01-15T16:58:34;8.10;99.90
38941;DHT22;43236;47.208;7.518;2023-01-15T17:01:33;8.10;99.90
38941;DHT22;43236;47.208;7.518;2023-01-15T17:04:27;8.00;99.90
38941;DHT22;43236;47.208;7.518;2023-01-15T17:07:17;8.00;99.90
38941;DHT22;43236;47.208;7.518;2023-01-15T17:10:17;7.90;99.90
38941;DHT22;43236;47.208;7.518;2023-01-15T17:13:16;7.80;99.90
38941;DHT22;43236;47.208;7.518;2023-01-15T17:16:15;7.70;99.90
38941;DHT22;43236;47.208;7.518;2023-01-15T17:19:04;7.70;99.90
38941;DHT22;43236;47.208;7.518;2023-01-15T17:21:52;7.60;99.90
38941;DHT22;43236;47.208;7.518;2023-01-15T17:24:45;7.60;99.90
38941;DHT22;43236;47.208;7.518;2023-01-15T17:27:32;7.50;99.90
38941;DHT22;43236;47.208;7.518;2023-01-15T17:30:20;7.50;99.90
38941;DHT22;43236;47.208;7.518;2023-01-15T17:33:11;7.40;99.90
38941;DHT22;43236;47.208;7.518;2023-01-15T17:35:58;7.30;99.90
38941;DHT22;43236;47.208;7.518;2023-01-15T17:38:46;7.30;99.90
38941;DHT22;43236;47.208;7.518;2023-01-15T17:41:33;7.30;99.90
38941;DHT22;43236;47.208;7.518;2023-01-15T17:44:20;7.30;99.90
38941;DHT22;43236;47.208;7.518;2023-01-15T17:47:07;7.20;99.90
38941;DHT22;43236;47.208;7.518;2023-01-15T17:49:56;7.20;99.90
38941;DHT22;43236;47.208;7.518;2023-01-15T17:52:43;7.20;99.90
38941;DHT22;43236;47.208;7.518;2023-01-15T17:55:31;7.10;99.90
38941;DHT22;43236;47.208;7.518;2023-01-15T17:58:35;7.10;99.90
38941;DHT22;43236;47.208;7.518;2023-01-15T18:01:41;7.00;99.90
38941;DHT22;43236;47.208;7.518;2023-01-15T18:04:48;6.90;99.90
38941;DHT22;43236;47.208;7.518;2023-01-15T18:07:55;6.80;99.90
38941;DHT22;43236;47.208;7.518;2023-01-15T18:10:42;6.80;99.90
38941;DHT22;43236;47.208;7.518;2023-01-15T18:13:29;6.80;99.90
38941;DHT22;43236;47.208;7.518;2023-01-15T18:16:16;6.80;99.90
38941;DHT22;43236;47.208;7.518;2023-01-15T18:19:04;6.80;99.70
38941;DHT22;43236;47.208;7.518;2023-01-15T18:21:51;6.70;98.80